• Join FlightAware (Why Join?)
  • Login
  • US Flag 
03:25PM EST


 

Airport Tracker/Info


-or-


 

Live Flight TrackerFlight Track Log ✈ N42JD ✈ 04-Sep-2013 ✈ KFTW - KGGG

Flight Track Log - Related Links

Times and Time Zones

All times are in EDT time to prevent confusion due to time zone crossing. See the N42JD flight status page for this flight to view local times or setup timezone preferences in your user account.

Time Position Orientation Groundspeed Altitude Reporting Facility
EDT Latitude Longitude Course Direction KTS MPH feet Rate Location/Type
09:41AM 32.3703 -96.7617 100° East 176 203 5,600  Level Fort Worth Center
09:42AM 32.3722 -96.7147 87° East 165 190 5,600  Level Fort Worth Center
09:43AM 32.3719 -96.6583 90° East 160 184 5,600  Level Fort Worth Center
09:44AM 32.3736 -96.6114 88° East 160 184 5,600  Level Fort Worth Center
09:45AM 32.3733 -96.5525 90° East 160 184 5,600  Level Fort Worth Center
09:46AM 32.6606 -96.3511 100° East  Level Estimated
09:46AM 32.3731 -96.5081 90° East 160 184 5,600  Level Fort Worth Center
09:47AM 32.3744 -96.4467 88° East 160 184 5,600  Level Fort Worth Center
09:48AM 32.3764 -96.3975 87° East 160 184 5,600  Level Fort Worth Center
09:49AM 32.3758 -96.3408 91° East 160 184 5,600  Level Fort Worth Center
09:50AM 32.3775 -96.2917 88° East 160 184 5,600  Level Fort Worth Center
09:51AM 32.3789 -96.2303 88° East 160 184 5,600  Level Fort Worth Center
09:52AM 32.3786 -96.1811 90° East 160 184 5,600  Level Fort Worth Center
09:53AM 32.3800 -96.1219 88° East 160 184 5,600 -60 Level Fort Worth Center
09:54AM 32.3794 -96.0778 91° East 160 184 5,500  Descending Fort Worth Center
09:55AM 32.3789 -96.0161 91° East 160 184 5,600  Climbing Fort Worth Center
09:56AM 32.3783 -95.9594 91° East 160 184 5,600  Level Fort Worth Center
09:57AM 32.3778 -95.9081 91° East 160 184 5,600  Level Fort Worth Center
09:58AM 32.3811 -95.8514 86° East 160 184 5,600  Level Fort Worth Center
09:59AM 32.3803 -95.7922 91° East 160 184 5,600  Level Fort Worth Center
10:00AM 32.3819 -95.7406 88° East 160 184 5,600  Level Fort Worth Center
10:01AM 32.3811 -95.6889 91° East 160 184 5,600  Level Fort Worth Center
10:02AM 32.3825 -95.6300 88° East 160 184 5,600  Level Fort Worth Center
10:03AM 32.3836 -95.5781 89° East 160 184 5,600  Level Fort Worth Center
10:04AM 32.3828 -95.5217 91° East 160 184 5,600  Level Fort Worth Center
10:05AM 32.3800 -95.4675 93° East 160 184 5,600  Level Fort Worth Center
10:06AM 32.3792 -95.4086 91° East 160 184 5,600  Level Fort Worth Center
10:07AM 32.3822 -95.3544 86° East 160 184 5,600 -60 Level Fort Worth Center
10:08AM 32.3814 -95.3003 91° East 160 184 5,500 -300 Descending Fort Worth Center
10:09AM 32.3825 -95.2436 89° East 160 184 5,100 -360 Descending Fort Worth Center
10:10AM 32.3858 -95.1844 86° East 160 184 4,800 -420 Descending Fort Worth Center
10:11AM 32.3847 -95.1231 91° East 171 197 4,300 -540 Descending Fort Worth Center
10:13AM 32.3833 -95.0335 90° East  Level FlightAware Approximate
10:20AM 32.3840 -94.7115 90° East  Level Estimated
10:21AM 32.3840 -94.7115 90° East  Level Estimated
10:22AM 32.3840 -94.7115 90° East  Level Estimated
10:23AM 32.3840 -94.7115 90° East  Level Estimated
10:24AM 32.3840 -94.7115 90° East  Level Estimated
10:25AM 32.3840 -94.7115 90° East  Level Estimated
10:26AM 32.3840 -94.7115 90° East  Level Estimated
10:27AM 32.3840 -94.7115 90° East  Level Estimated
10:28AM 32.3840 -94.7115 90° East  Level Estimated